sensor_id;sensor_type;location;lat;lon;timestamp;P1;durP1;ratioP1;P2;durP2;ratioP2
4309;SDS011;2168;53.576;9.980;2023-02-24T00:01:00;5.07;;;1.40;;
4309;SDS011;2168;53.576;9.980;2023-02-24T00:03:33;12.07;;;1.43;;
4309;SDS011;2168;53.576;9.980;2023-02-24T00:05:59;6.83;;;1.53;;
4309;SDS011;2168;53.576;9.980;2023-02-24T00:08:24;5.60;;;1.40;;
4309;SDS011;2168;53.576;9.980;2023-02-24T00:10:49;4.50;;;1.17;;
4309;SDS011;2168;53.576;9.980;2023-02-24T00:13:14;2.73;;;1.00;;
4309;SDS011;2168;53.576;9.980;2023-02-24T00:15:46;3.97;;;0.97;;
4309;SDS011;2168;53.576;9.980;2023-02-24T00:18:11;6.53;;;1.97;;
4309;SDS011;2168;53.576;9.980;2023-02-24T00:20:36;5.93;;;1.93;;
4309;SDS011;2168;53.576;9.980;2023-02-24T00:23:01;7.27;;;1.37;;
4309;SDS011;2168;53.576;9.980;2023-02-24T00:25:26;1.83;;;1.40;;
4309;SDS011;2168;53.576;9.980;2023-02-24T00:27:52;6.63;;;1.13;;
4309;SDS011;2168;53.576;9.980;2023-02-24T00:30:19;6.57;;;1.30;;
4309;SDS011;2168;53.576;9.980;2023-02-24T00:32:45;6.50;;;1.60;;
4309;SDS011;2168;53.576;9.980;2023-02-24T00:35:10;9.03;;;1.80;;
4309;SDS011;2168;53.576;9.980;2023-02-24T00:37:35;4.23;;;1.37;;
4309;SDS011;2168;53.576;9.980;2023-02-24T00:40:01;6.00;;;1.30;;
4309;SDS011;2168;53.576;9.980;2023-02-24T00:42:26;7.57;;;1.37;;
4309;SDS011;2168;53.576;9.980;2023-02-24T00:44:51;1.80;;;1.10;;
4309;SDS011;2168;53.576;9.980;2023-02-24T00:47:18;6.20;;;1.40;;
4309;SDS011;2168;53.576;9.980;2023-02-24T00:49:43;4.07;;;1.20;;
4309;SDS011;2168;53.576;9.980;2023-02-24T00:52:09;4.43;;;1.50;;
4309;SDS011;2168;53.576;9.980;2023-02-24T00:54:37;2.13;;;1.07;;
4309;SDS011;2168;53.576;9.980;2023-02-24T00:57:03;9.93;;;2.20;;
4309;SDS011;2168;53.576;9.980;2023-02-24T00:59:28;2.20;;;1.30;;
4309;SDS011;2168;53.576;9.980;2023-02-24T01:01:53;8.43;;;1.47;;
4309;SDS011;2168;53.576;9.980;2023-02-24T01:04:19;10.60;;;1.43;;
4309;SDS011;2168;53.576;9.980;2023-02-24T01:06:46;8.37;;;1.70;;
4309;SDS011;2168;53.576;9.980;2023-02-24T01:09:12;2.90;;;1.17;;
4309;SDS011;2168;53.576;9.980;2023-02-24T01:11:39;2.70;;;1.30;;
4309;SDS011;2168;53.576;9.980;2023-02-24T01:14:24;1.70;;;1.10;;
4309;SDS011;2168;53.576;9.980;2023-02-24T01:16:49;4.27;;;1.73;;
4309;SDS011;2168;53.576;9.980;2023-02-24T01:19:15;3.60;;;1.13;;
4309;SDS011;2168;53.576;9.980;2023-02-24T01:21:40;3.97;;;1.10;;
4309;SDS011;2168;53.576;9.980;2023-02-24T01:24:06;6.83;;;1.50;;
4309;SDS011;2168;53.576;9.980;2023-02-24T01:26:31;4.57;;;1.80;;
4309;SDS011;2168;53.576;9.980;2023-02-24T01:28:56;3.80;;;1.50;;
4309;SDS011;2168;53.576;9.980;2023-02-24T01:31:21;6.73;;;1.50;;
4309;SDS011;2168;53.576;9.980;2023-02-24T01:33:47;9.90;;;1.60;;
4309;SDS011;2168;53.576;9.980;2023-02-24T01:36:15;4.53;;;1.10;;
4309;SDS011;2168;53.576;9.980;2023-02-24T01:38:41;12.20;;;1.70;;
4309;SDS011;2168;53.576;9.980;2023-02-24T01:41:06;8.80;;;1.50;;
4309;SDS011;2168;53.576;9.980;2023-02-24T01:43:32;4.87;;;1.77;;
4309;SDS011;2168;53.576;9.980;2023-02-24T01:45:58;5.73;;;1.40;;
4309;SDS011;2168;53.576;9.980;2023-02-24T01:48:23;5.50;;;2.00;;
4309;SDS011;2168;53.576;9.980;2023-02-24T01:50:50;7.77;;;1.50;;
4309;SDS011;2168;53.576;9.980;2023-02-24T01:53:15;3.93;;;1.33;;
4309;SDS011;2168;53.576;9.980;2023-02-24T01:55:44;5.40;;;1.50;;
4309;SDS011;2168;53.576;9.980;2023-02-24T01:58:24;6.30;;;1.80;;
4309;SDS011;2168;53.576;9.980;2023-02-24T02:00:50;6.30;;;1.60;;
4309;SDS011;2168;53.576;9.980;2023-02-24T02:05:41;5.97;;;1.47;;
4309;SDS011;2168;53.576;9.980;2023-02-24T02:08:06;7.50;;;1.37;;
4309;SDS011;2168;53.576;9.980;2023-02-24T02:10:33;3.77;;;1.30;;
4309;SDS011;2168;53.576;9.980;2023-02-24T02:12:58;7.80;;;1.40;;
4309;SDS011;2168;53.576;9.980;2023-02-24T02:15:24;9.37;;;1.47;;
4309;SDS011;2168;53.576;9.980;2023-02-24T02:20:47;5.30;;;1.40;;
4309;SDS011;2168;53.576;9.980;2023-02-24T02:23:25;8.53;;;1.20;;
4309;SDS011;2168;53.576;9.980;2023-02-24T02:28:32;6.50;;;1.47;;
4309;SDS011;2168;53.576;9.980;2023-02-24T02:38:52;5.13;;;1.30;;
4309;SDS011;2168;53.576;9.980;2023-02-24T02:43:48;6.83;;;1.50;;
4309;SDS011;2168;53.576;9.980;2023-02-24T02:46:20;5.33;;;1.77;;
4309;SDS011;2168;53.576;9.980;2023-02-24T02:48:58;6.87;;;1.67;;
4309;SDS011;2168;53.576;9.980;2023-02-24T02:51:28;10.57;;;2.47;;
4309;SDS011;2168;53.576;9.980;2023-02-24T02:54:37;6.47;;;1.47;;
4309;SDS011;2168;53.576;9.980;2023-02-24T02:56:47;5.63;;;1.50;;
4309;SDS011;2168;53.576;9.980;2023-02-24T02:59:15;6.03;;;1.20;;
4309;SDS011;2168;53.576;9.980;2023-02-24T03:01:46;4.03;;;1.47;;
4309;SDS011;2168;53.576;9.980;2023-02-24T03:04:11;7.13;;;1.27;;
4309;SDS011;2168;53.576;9.980;2023-02-24T03:06:46;3.90;;;1.17;;
4309;SDS011;2168;53.576;9.980;2023-02-24T03:09:13;14.27;;;1.67;;
4309;SDS011;2168;53.576;9.980;2023-02-24T03:11:40;7.63;;;1.47;;
4309;SDS011;2168;53.576;9.980;2023-02-24T03:14:06;2.93;;;1.40;;
4309;SDS011;2168;53.576;9.980;2023-02-24T03:16:36;5.10;;;1.03;;
4309;SDS011;2168;53.576;9.980;2023-02-24T03:19:02;6.40;;;1.37;;
4309;SDS011;2168;53.576;9.980;2023-02-24T03:21:36;4.47;;;1.33;;
4309;SDS011;2168;53.576;9.980;2023-02-24T03:24:02;5.70;;;1.40;;
4309;SDS011;2168;53.576;9.980;2023-02-24T03:26:45;6.13;;;1.40;;
4309;SDS011;2168;53.576;9.980;2023-02-24T03:31:52;6.37;;;1.43;;
4309;SDS011;2168;53.576;9.980;2023-02-24T03:34:28;9.47;;;1.63;;
4309;SDS011;2168;53.576;9.980;2023-02-24T03:36:56;3.73;;;1.77;;
4309;SDS011;2168;53.576;9.980;2023-02-24T03:39:22;7.33;;;1.40;;
4309;SDS011;2168;53.576;9.980;2023-02-24T03:44:12;10.80;;;1.33;;
4309;SDS011;2168;53.576;9.980;2023-02-24T03:46:38;12.83;;;1.83;;
4309;SDS011;2168;53.576;9.980;2023-02-24T03:49:07;6.63;;;1.20;;
4309;SDS011;2168;53.576;9.980;2023-02-24T03:51:40;7.63;;;1.23;;
4309;SDS011;2168;53.576;9.980;2023-02-24T03:59:30;7.10;;;1.50;;
4309;SDS011;2168;53.576;9.980;2023-02-24T04:04:24;6.93;;;1.40;;
4309;SDS011;2168;53.576;9.980;2023-02-24T04:07:03;3.53;;;1.53;;
4309;SDS011;2168;53.576;9.980;2023-02-24T04:09:36;5.47;;;1.60;;
4309;SDS011;2168;53.576;9.980;2023-02-24T04:12:25;2.60;;;1.00;;
4309;SDS011;2168;53.576;9.980;2023-02-24T04:17:19;4.80;;;1.40;;
4309;SDS011;2168;53.576;9.980;2023-02-24T04:19:47;6.73;;;1.27;;
4309;SDS011;2168;53.576;9.980;2023-02-24T04:22:13;5.97;;;1.47;;
4309;SDS011;2168;53.576;9.980;2023-02-24T04:24:39;6.20;;;1.60;;
4309;SDS011;2168;53.576;9.980;2023-02-24T04:27:06;3.30;;;1.10;;
4309;SDS011;2168;53.576;9.980;2023-02-24T04:29:37;6.10;;;1.00;;
4309;SDS011;2168;53.576;9.980;2023-02-24T04:32:05;3.97;;;1.33;;
4309;SDS011;2168;53.576;9.980;2023-02-24T04:34:31;4.20;;;1.50;;
4309;SDS011;2168;53.576;9.980;2023-02-24T04:36:57;12.67;;;1.83;;
4309;SDS011;2168;53.576;9.980;2023-02-24T04:39:23;2.80;;;0.90;;
4309;SDS011;2168;53.576;9.980;2023-02-24T04:41:48;4.60;;;1.50;;
4309;SDS011;2168;53.576;9.980;2023-02-24T04:44:17;3.17;;;1.27;;
4309;SDS011;2168;53.576;9.980;2023-02-24T04:46:43;8.90;;;1.60;;
4309;SDS011;2168;53.576;9.980;2023-02-24T04:49:09;7.07;;;1.20;;
4309;SDS011;2168;53.576;9.980;2023-02-24T04:51:35;8.37;;;1.40;;
4309;SDS011;2168;53.576;9.980;2023-02-24T04:54:00;7.50;;;1.57;;
4309;SDS011;2168;53.576;9.980;2023-02-24T04:56:27;5.30;;;1.20;;
4309;SDS011;2168;53.576;9.980;2023-02-24T04:58:52;4.20;;;1.30;;
4309;SDS011;2168;53.576;9.980;2023-02-24T05:01:18;1.43;;;1.10;;
4309;SDS011;2168;53.576;9.980;2023-02-24T05:03:43;2.70;;;1.10;;
4309;SDS011;2168;53.576;9.980;2023-02-24T05:06:15;7.60;;;2.00;;
4309;SDS011;2168;53.576;9.980;2023-02-24T05:08:41;4.40;;;0.97;;
4309;SDS011;2168;53.576;9.980;2023-02-24T05:11:10;6.10;;;1.57;;
4309;SDS011;2168;53.576;9.980;2023-02-24T05:13:36;3.60;;;1.60;;
4309;SDS011;2168;53.576;9.980;2023-02-24T05:16:05;3.00;;;1.33;;
4309;SDS011;2168;53.576;9.980;2023-02-24T05:18:31;5.73;;;1.73;;
4309;SDS011;2168;53.576;9.980;2023-02-24T05:21:06;2.30;;;1.20;;
4309;SDS011;2168;53.576;9.980;2023-02-24T05:23:51;8.03;;;1.27;;
4309;SDS011;2168;53.576;9.980;2023-02-24T05:26:17;4.07;;;1.10;;
4309;SDS011;2168;53.576;9.980;2023-02-24T05:28:44;7.20;;;1.37;;
4309;SDS011;2168;53.576;9.980;2023-02-24T05:31:13;2.20;;;1.10;;
4309;SDS011;2168;53.576;9.980;2023-02-24T05:33:40;2.50;;;1.33;;
4309;SDS011;2168;53.576;9.980;2023-02-24T05:36:07;8.27;;;1.33;;
4309;SDS011;2168;53.576;9.980;2023-02-24T05:38:34;5.33;;;1.60;;
4309;SDS011;2168;53.576;9.980;2023-02-24T05:41:08;8.30;;;2.60;;
4309;SDS011;2168;53.576;9.980;2023-02-24T05:43:39;2.73;;;1.50;;
4309;SDS011;2168;53.576;9.980;2023-02-24T05:46:05;7.60;;;1.77;;
4309;SDS011;2168;53.576;9.980;2023-02-24T05:48:31;5.20;;;1.80;;
4309;SDS011;2168;53.576;9.980;2023-02-24T05:51:00;12.67;;;1.50;;
4309;SDS011;2168;53.576;9.980;2023-02-24T05:53:25;4.20;;;1.43;;
4309;SDS011;2168;53.576;9.980;2023-02-24T05:55:51;5.87;;;1.30;;
4309;SDS011;2168;53.576;9.980;2023-02-24T05:58:16;3.13;;;1.43;;
4309;SDS011;2168;53.576;9.980;2023-02-24T06:00:41;3.83;;;1.23;;
4309;SDS011;2168;53.576;9.980;2023-02-24T06:03:10;4.20;;;1.20;;
4309;SDS011;2168;53.576;9.980;2023-02-24T06:05:40;3.40;;;1.60;;
4309;SDS011;2168;53.576;9.980;2023-02-24T06:08:06;6.20;;;1.17;;
4309;SDS011;2168;53.576;9.980;2023-02-24T06:10:36;3.30;;;1.00;;
4309;SDS011;2168;53.576;9.980;2023-02-24T06:13:01;5.33;;;1.47;;
4309;SDS011;2168;53.576;9.980;2023-02-24T06:15:27;2.10;;;1.90;;
4309;SDS011;2168;53.576;9.980;2023-02-24T06:17:52;4.13;;;1.53;;
4309;SDS011;2168;53.576;9.980;2023-02-24T06:20:21;4.80;;;2.47;;
4309;SDS011;2168;53.576;9.980;2023-02-24T06:22:46;8.03;;;2.43;;
4309;SDS011;2168;53.576;9.980;2023-02-24T06:25:12;7.23;;;2.53;;
4309;SDS011;2168;53.576;9.980;2023-02-24T06:27:38;6.40;;;2.93;;
4309;SDS011;2168;53.576;9.980;2023-02-24T06:30:03;10.27;;;2.93;;
4309;SDS011;2168;53.576;9.980;2023-02-24T06:32:34;5.57;;;3.00;;
4309;SDS011;2168;53.576;9.980;2023-02-24T06:35:00;7.60;;;2.57;;
4309;SDS011;2168;53.576;9.980;2023-02-24T06:37:25;11.60;;;3.97;;
4309;SDS011;2168;53.576;9.980;2023-02-24T06:39:50;7.27;;;3.77;;
4309;SDS011;2168;53.576;9.980;2023-02-24T06:42:16;4.63;;;2.93;;
4309;SDS011;2168;53.576;9.980;2023-02-24T06:44:41;16.33;;;4.10;;
4309;SDS011;2168;53.576;9.980;2023-02-24T06:47:07;6.30;;;2.80;;
4309;SDS011;2168;53.576;9.980;2023-02-24T06:49:34;9.57;;;2.90;;
4309;SDS011;2168;53.576;9.980;2023-02-24T06:51:59;3.10;;;2.90;;
4309;SDS011;2168;53.576;9.980;2023-02-24T06:54:24;7.07;;;3.57;;
4309;SDS011;2168;53.576;9.980;2023-02-24T06:56:54;6.60;;;3.30;;
4309;SDS011;2168;53.576;9.980;2023-02-24T06:59:19;10.20;;;4.40;;
4309;SDS011;2168;53.576;9.980;2023-02-24T07:01:52;3.73;;;3.30;;
4309;SDS011;2168;53.576;9.980;2023-02-24T07:04:18;5.13;;;3.33;;
4309;SDS011;2168;53.576;9.980;2023-02-24T07:06:45;6.90;;;3.63;;
4309;SDS011;2168;53.576;9.980;2023-02-24T07:09:13;8.73;;;3.70;;
4309;SDS011;2168;53.576;9.980;2023-02-24T07:11:40;7.83;;;3.20;;
4309;SDS011;2168;53.576;9.980;2023-02-24T07:14:06;8.50;;;3.23;;
4309;SDS011;2168;53.576;9.980;2023-02-24T07:16:32;10.90;;;3.40;;
4309;SDS011;2168;53.576;9.980;2023-02-24T07:18:58;6.40;;;3.33;;
4309;SDS011;2168;53.576;9.980;2023-02-24T07:21:26;4.70;;;3.07;;
4309;SDS011;2168;53.576;9.980;2023-02-24T07:23:54;5.10;;;3.47;;
4309;SDS011;2168;53.576;9.980;2023-02-24T07:26:23;6.93;;;3.20;;
4309;SDS011;2168;53.576;9.980;2023-02-24T07:28:49;5.57;;;3.40;;
4309;SDS011;2168;53.576;9.980;2023-02-24T07:31:15;5.03;;;3.60;;
4309;SDS011;2168;53.576;9.980;2023-02-24T07:33:41;4.30;;;3.30;;
4309;SDS011;2168;53.576;9.980;2023-02-24T07:36:11;6.23;;;3.37;;
4309;SDS011;2168;53.576;9.980;2023-02-24T07:38:38;5.40;;;2.70;;
4309;SDS011;2168;53.576;9.980;2023-02-24T07:41:05;4.83;;;2.77;;
4309;SDS011;2168;53.576;9.980;2023-02-24T07:43:34;6.83;;;3.10;;
4309;SDS011;2168;53.576;9.980;2023-02-24T07:46:12;3.43;;;3.10;;
4309;SDS011;2168;53.576;9.980;2023-02-24T07:48:38;8.77;;;3.37;;
4309;SDS011;2168;53.576;9.980;2023-02-24T07:51:08;6.10;;;3.43;;
4309;SDS011;2168;53.576;9.980;2023-02-24T07:53:34;3.97;;;3.00;;
4309;SDS011;2168;53.576;9.980;2023-02-24T07:55:59;9.23;;;3.73;;
4309;SDS011;2168;53.576;9.980;2023-02-24T07:58:25;7.23;;;4.60;;
4309;SDS011;2168;53.576;9.980;2023-02-24T08:00:52;7.13;;;4.00;;
4309;SDS011;2168;53.576;9.980;2023-02-24T08:03:25;3.80;;;3.50;;
4309;SDS011;2168;53.576;9.980;2023-02-24T08:05:53;9.63;;;3.23;;
4309;SDS011;2168;53.576;9.980;2023-02-24T08:08:18;6.10;;;3.37;;
4309;SDS011;2168;53.576;9.980;2023-02-24T08:10:44;4.40;;;3.53;;
4309;SDS011;2168;53.576;9.980;2023-02-24T08:13:11;6.43;;;3.90;;
4309;SDS011;2168;53.576;9.980;2023-02-24T08:15:36;6.27;;;3.70;;
4309;SDS011;2168;53.576;9.980;2023-02-24T08:18:01;4.33;;;3.23;;
4309;SDS011;2168;53.576;9.980;2023-02-24T08:20:27;5.77;;;3.67;;
4309;SDS011;2168;53.576;9.980;2023-02-24T08:23:16;6.87;;;3.40;;
4309;SDS011;2168;53.576;9.980;2023-02-24T08:25:42;4.10;;;3.53;;
4309;SDS011;2168;53.576;9.980;2023-02-24T08:28:08;7.00;;;3.47;;
4309;SDS011;2168;53.576;9.980;2023-02-24T08:30:36;7.87;;;4.07;;
4309;SDS011;2168;53.576;9.980;2023-02-24T08:33:09;3.13;;;2.93;;
4309;SDS011;2168;53.576;9.980;2023-02-24T08:35:35;8.17;;;3.60;;
4309;SDS011;2168;53.576;9.980;2023-02-24T08:38:05;6.33;;;3.70;;
4309;SDS011;2168;53.576;9.980;2023-02-24T08:40:32;9.73;;;5.20;;
4309;SDS011;2168;53.576;9.980;2023-02-24T08:48:09;13.53;;;7.30;;
4309;SDS011;2168;53.576;9.980;2023-02-24T08:50:42;10.13;;;6.93;;
4309;SDS011;2168;53.576;9.980;2023-02-24T08:53:09;14.33;;;7.13;;
4309;SDS011;2168;53.576;9.980;2023-02-24T08:55:34;7.73;;;6.13;;
4309;SDS011;2168;53.576;9.980;2023-02-24T08:58:03;8.70;;;6.73;;
4309;SDS011;2168;53.576;9.980;2023-02-24T09:00:35;9.87;;;5.87;;
4309;SDS011;2168;53.576;9.980;2023-02-24T09:03:18;8.17;;;6.60;;
4309;SDS011;2168;53.576;9.980;2023-02-24T09:06:03;10.20;;;5.90;;
4309;SDS011;2168;53.576;9.980;2023-02-24T09:08:30;8.43;;;6.20;;
4309;SDS011;2168;53.576;9.980;2023-02-24T09:11:02;8.47;;;5.47;;
4309;SDS011;2168;53.576;9.980;2023-02-24T09:13:41;7.43;;;6.00;;
4309;SDS011;2168;53.576;9.980;2023-02-24T09:16:18;6.13;;;5.53;;
4309;SDS011;2168;53.576;9.980;2023-02-24T09:18:44;8.23;;;4.43;;
4309;SDS011;2168;53.576;9.980;2023-02-24T09:21:10;6.73;;;4.87;;
4309;SDS011;2168;53.576;9.980;2023-02-24T09:23:54;6.03;;;4.70;;
4309;SDS011;2168;53.576;9.980;2023-02-24T09:26:20;5.67;;;4.40;;
4309;SDS011;2168;53.576;9.980;2023-02-24T09:28:45;5.33;;;4.13;;
4309;SDS011;2168;53.576;9.980;2023-02-24T09:31:18;5.00;;;4.10;;
4309;SDS011;2168;53.576;9.980;2023-02-24T09:33:47;5.93;;;4.37;;
4309;SDS011;2168;53.576;9.980;2023-02-24T09:36:16;4.30;;;3.83;;
4309;SDS011;2168;53.576;9.980;2023-02-24T09:38:48;4.87;;;4.30;;
4309;SDS011;2168;53.576;9.980;2023-02-24T09:41:41;5.70;;;3.80;;
4309;SDS011;2168;53.576;9.980;2023-02-24T09:46:51;7.10;;;4.70;;
4309;SDS011;2168;53.576;9.980;2023-02-24T09:49:19;6.17;;;4.13;;
4309;SDS011;2168;53.576;9.980;2023-02-24T09:51:48;4.90;;;4.40;;
4309;SDS011;2168;53.576;9.980;2023-02-24T09:54:24;4.37;;;3.97;;
4309;SDS011;2168;53.576;9.980;2023-02-24T09:56:58;6.90;;;4.63;;
4309;SDS011;2168;53.576;9.980;2023-02-24T10:07:14;5.80;;;5.00;;
4309;SDS011;2168;53.576;9.980;2023-02-24T10:09:45;5.13;;;4.63;;
4309;SDS011;2168;53.576;9.980;2023-02-24T10:14:46;5.87;;;5.27;;
4309;SDS011;2168;53.576;9.980;2023-02-24T10:19:48;7.77;;;4.90;;
4309;SDS011;2168;53.576;9.980;2023-02-24T10:22:39;9.93;;;5.60;;
4309;SDS011;2168;53.576;9.980;2023-02-24T10:25:20;7.50;;;4.80;;
4309;SDS011;2168;53.576;9.980;2023-02-24T10:33:39;5.80;;;4.30;;
4309;SDS011;2168;53.576;9.980;2023-02-24T10:36:16;5.70;;;4.63;;
4309;SDS011;2168;53.576;9.980;2023-02-24T10:38:42;5.00;;;4.13;;
4309;SDS011;2168;53.576;9.980;2023-02-24T10:41:11;5.30;;;4.50;;
4309;SDS011;2168;53.576;9.980;2023-02-24T10:43:37;6.13;;;4.67;;
4309;SDS011;2168;53.576;9.980;2023-02-24T10:46:21;7.17;;;4.60;;
4309;SDS011;2168;53.576;9.980;2023-02-24T10:48:53;7.07;;;3.70;;
4309;SDS011;2168;53.576;9.980;2023-02-24T10:51:24;4.60;;;4.03;;
4309;SDS011;2168;53.576;9.980;2023-02-24T10:54:03;5.10;;;4.33;;
4309;SDS011;2168;53.576;9.980;2023-02-24T10:56:58;5.30;;;3.70;;
4309;SDS011;2168;53.576;9.980;2023-02-24T11:00:12;5.53;;;3.63;;
4309;SDS011;2168;53.576;9.980;2023-02-24T11:02:26;7.03;;;3.40;;
4309;SDS011;2168;53.576;9.980;2023-02-24T11:04:57;4.30;;;3.90;;
4309;SDS011;2168;53.576;9.980;2023-02-24T11:07:22;4.27;;;3.60;;
4309;SDS011;2168;53.576;9.980;2023-02-24T11:10:11;5.67;;;3.80;;
4309;SDS011;2168;53.576;9.980;2023-02-24T11:12:44;4.97;;;3.77;;
4309;SDS011;2168;53.576;9.980;2023-02-24T11:15:31;3.73;;;3.43;;
4309;SDS011;2168;53.576;9.980;2023-02-24T11:18:17;3.97;;;3.40;;
4309;SDS011;2168;53.576;9.980;2023-02-24T11:20:44;6.33;;;3.60;;
4309;SDS011;2168;53.576;9.980;2023-02-24T11:23:18;4.83;;;3.37;;
4309;SDS011;2168;53.576;9.980;2023-02-24T11:25:48;4.27;;;3.70;;
4309;SDS011;2168;53.576;9.980;2023-02-24T11:36:30;7.73;;;4.13;;
4309;SDS011;2168;53.576;9.980;2023-02-24T11:39:15;3.70;;;3.50;;
4309;SDS011;2168;53.576;9.980;2023-02-24T11:41:51;7.63;;;4.27;;
4309;SDS011;2168;53.576;9.980;2023-02-24T11:44:20;3.70;;;3.50;;
4309;SDS011;2168;53.576;9.980;2023-02-24T11:46:48;3.23;;;3.03;;
4309;SDS011;2168;53.576;9.980;2023-02-24T11:49:59;3.53;;;3.27;;
4309;SDS011;2168;53.576;9.980;2023-02-24T11:52:05;4.20;;;3.30;;
4309;SDS011;2168;53.576;9.980;2023-02-24T11:54:37;3.70;;;3.50;;
4309;SDS011;2168;53.576;9.980;2023-02-24T11:57:07;6.47;;;3.30;;
4309;SDS011;2168;53.576;9.980;2023-02-24T11:59:38;4.47;;;3.93;;
4309;SDS011;2168;53.576;9.980;2023-02-24T12:02:21;5.83;;;3.90;;
4309;SDS011;2168;53.576;9.980;2023-02-24T12:05:02;12.90;;;3.87;;
4309;SDS011;2168;53.576;9.980;2023-02-24T12:07:34;7.80;;;3.70;;
4309;SDS011;2168;53.576;9.980;2023-02-24T12:10:06;4.87;;;3.60;;
4309;SDS011;2168;53.576;9.980;2023-02-24T12:12:43;13.23;;;4.93;;
4309;SDS011;2168;53.576;9.980;2023-02-24T12:15:18;5.60;;;3.80;;
4309;SDS011;2168;53.576;9.980;2023-02-24T12:20:35;4.77;;;3.63;;
4309;SDS011;2168;53.576;9.980;2023-02-24T12:23:08;6.47;;;3.90;;
4309;SDS011;2168;53.576;9.980;2023-02-24T12:25:52;3.90;;;3.27;;
4309;SDS011;2168;53.576;9.980;2023-02-24T12:28:27;6.00;;;3.87;;
4309;SDS011;2168;53.576;9.980;2023-02-24T12:31:05;3.73;;;3.37;;
4309;SDS011;2168;53.576;9.980;2023-02-24T12:33:43;5.67;;;3.80;;
4309;SDS011;2168;53.576;9.980;2023-02-24T12:36:22;4.33;;;3.63;;
4309;SDS011;2168;53.576;9.980;2023-02-24T12:38:52;8.00;;;3.80;;
4309;SDS011;2168;53.576;9.980;2023-02-24T12:46:33;6.00;;;4.47;;
4309;SDS011;2168;53.576;9.980;2023-02-24T12:49:09;8.57;;;4.80;;
4309;SDS011;2168;53.576;9.980;2023-02-24T12:57:10;6.80;;;4.43;;
4309;SDS011;2168;53.576;9.980;2023-02-24T12:59:38;8.83;;;4.50;;
4309;SDS011;2168;53.576;9.980;2023-02-24T13:04:35;12.57;;;5.05;;
4309;SDS011;2168;53.576;9.980;2023-02-24T13:12:37;11.40;;;5.43;;
4309;SDS011;2168;53.576;9.980;2023-02-24T13:15:05;13.20;;;4.93;;
4309;SDS011;2168;53.576;9.980;2023-02-24T13:17:30;9.27;;;4.87;;
4309;SDS011;2168;53.576;9.980;2023-02-24T13:19:56;14.57;;;5.83;;
4309;SDS011;2168;53.576;9.980;2023-02-24T13:22:23;6.20;;;4.23;;
4309;SDS011;2168;53.576;9.980;2023-02-24T13:24:57;9.70;;;5.00;;
4309;SDS011;2168;53.576;9.980;2023-02-24T13:27:27;13.93;;;5.23;;
4309;SDS011;2168;53.576;9.980;2023-02-24T13:29:56;12.23;;;4.80;;
4309;SDS011;2168;53.576;9.980;2023-02-24T13:32:27;7.57;;;5.27;;
4309;SDS011;2168;53.576;9.980;2023-02-24T13:34:53;9.60;;;4.40;;
4309;SDS011;2168;53.576;9.980;2023-02-24T13:37:52;10.40;;;5.43;;
4309;SDS011;2168;53.576;9.980;2023-02-24T13:40:32;10.30;;;5.67;;
4309;SDS011;2168;53.576;9.980;2023-02-24T13:45:22;11.43;;;5.30;;
4309;SDS011;2168;53.576;9.980;2023-02-24T13:50:20;15.38;;;5.80;;
4309;SDS011;2168;53.576;9.980;2023-02-24T14:00:16;11.30;;;3.37;;
4309;SDS011;2168;53.576;9.980;2023-02-24T14:02:46;10.40;;;3.47;;
4309;SDS011;2168;53.576;9.980;2023-02-24T14:05:16;12.93;;;3.27;;
4309;SDS011;2168;53.576;9.980;2023-02-24T14:07:45;13.93;;;2.80;;
4309;SDS011;2168;53.576;9.980;2023-02-24T14:10:19;16.33;;;2.50;;
4309;SDS011;2168;53.576;9.980;2023-02-24T14:12:45;8.13;;;2.43;;
4309;SDS011;2168;53.576;9.980;2023-02-24T14:15:26;7.47;;;1.77;;
4309;SDS011;2168;53.576;9.980;2023-02-24T14:17:56;12.23;;;2.40;;
4309;SDS011;2168;53.576;9.980;2023-02-24T14:20:22;9.73;;;1.90;;
4309;SDS011;2168;53.576;9.980;2023-02-24T14:22:49;7.87;;;2.10;;
4309;SDS011;2168;53.576;9.980;2023-02-24T14:25:14;11.40;;;2.70;;
4309;SDS011;2168;53.576;9.980;2023-02-24T14:27:42;11.17;;;2.70;;
4309;SDS011;2168;53.576;9.980;2023-02-24T14:30:20;10.40;;;2.53;;
4309;SDS011;2168;53.576;9.980;2023-02-24T14:32:46;10.47;;;3.60;;
4309;SDS011;2168;53.576;9.980;2023-02-24T14:35:31;6.73;;;2.60;;
4309;SDS011;2168;53.576;9.980;2023-02-24T14:37:57;11.27;;;2.90;;
4309;SDS011;2168;53.576;9.980;2023-02-24T14:40:22;10.43;;;2.97;;
4309;SDS011;2168;53.576;9.980;2023-02-24T14:42:49;8.03;;;3.00;;
4309;SDS011;2168;53.576;9.980;2023-02-24T14:45:16;9.23;;;2.63;;
4309;SDS011;2168;53.576;9.980;2023-02-24T14:47:41;14.23;;;2.97;;
4309;SDS011;2168;53.576;9.980;2023-02-24T14:50:13;8.40;;;2.53;;
4309;SDS011;2168;53.576;9.980;2023-02-24T14:55:14;11.97;;;2.63;;
4309;SDS011;2168;53.576;9.980;2023-02-24T14:57:53;9.23;;;2.60;;
4309;SDS011;2168;53.576;9.980;2023-02-24T15:00:24;6.70;;;2.13;;
4309;SDS011;2168;53.576;9.980;2023-02-24T15:05:19;7.37;;;3.60;;
4309;SDS011;2168;53.576;9.980;2023-02-24T15:07:44;12.90;;;3.80;;
4309;SDS011;2168;53.576;9.980;2023-02-24T15:10:20;9.97;;;3.73;;
4309;SDS011;2168;53.576;9.980;2023-02-24T15:12:47;11.47;;;2.43;;
4309;SDS011;2168;53.576;9.980;2023-02-24T15:15:21;7.77;;;2.37;;
4309;SDS011;2168;53.576;9.980;2023-02-24T15:17:48;8.63;;;2.13;;
4309;SDS011;2168;53.576;9.980;2023-02-24T15:22:50;10.47;;;2.20;;
4309;SDS011;2168;53.576;9.980;2023-02-24T15:27:50;3.53;;;2.00;;
4309;SDS011;2168;53.576;9.980;2023-02-24T15:30:27;8.57;;;1.83;;
4309;SDS011;2168;53.576;9.980;2023-02-24T15:33:00;6.23;;;1.60;;
4309;SDS011;2168;53.576;9.980;2023-02-24T15:35:25;7.60;;;1.70;;
4309;SDS011;2168;53.576;9.980;2023-02-24T15:37:50;4.20;;;2.27;;
4309;SDS011;2168;53.576;9.980;2023-02-24T15:42:48;4.33;;;1.70;;
4309;SDS011;2168;53.576;9.980;2023-02-24T15:45:46;9.23;;;1.70;;
4309;SDS011;2168;53.576;9.980;2023-02-24T15:48:18;8.57;;;1.87;;
4309;SDS011;2168;53.576;9.980;2023-02-24T15:50:44;4.37;;;1.97;;
4309;SDS011;2168;53.576;9.980;2023-02-24T15:53:09;5.00;;;1.87;;
4309;SDS011;2168;53.576;9.980;2023-02-24T15:55:37;8.83;;;2.10;;
4309;SDS011;2168;53.576;9.980;2023-02-24T15:58:02;4.37;;;2.00;;
4309;SDS011;2168;53.576;9.980;2023-02-24T16:00:27;7.20;;;2.10;;
4309;SDS011;2168;53.576;9.980;2023-02-24T16:02:53;9.20;;;2.13;;
4309;SDS011;2168;53.576;9.980;2023-02-24T16:05:18;13.83;;;2.60;;
4309;SDS011;2168;53.576;9.980;2023-02-24T16:07:44;6.27;;;2.00;;
4309;SDS011;2168;53.576;9.980;2023-02-24T16:10:16;7.13;;;1.87;;
4309;SDS011;2168;53.576;9.980;2023-02-24T16:12:47;8.37;;;1.73;;
4309;SDS011;2168;53.576;9.980;2023-02-24T16:15:14;6.87;;;2.17;;
4309;SDS011;2168;53.576;9.980;2023-02-24T16:17:41;12.87;;;2.00;;
4309;SDS011;2168;53.576;9.980;2023-02-24T16:20:11;7.87;;;2.30;;
4309;SDS011;2168;53.576;9.980;2023-02-24T16:22:36;6.70;;;2.40;;
4309;SDS011;2168;53.576;9.980;2023-02-24T16:25:02;6.70;;;2.10;;
4309;SDS011;2168;53.576;9.980;2023-02-24T16:27:27;18.27;;;2.63;;
4309;SDS011;2168;53.576;9.980;2023-02-24T16:29:53;9.10;;;2.40;;
4309;SDS011;2168;53.576;9.980;2023-02-24T16:32:19;8.33;;;2.13;;
4309;SDS011;2168;53.576;9.980;2023-02-24T16:34:49;10.90;;;1.90;;
4309;SDS011;2168;53.576;9.980;2023-02-24T16:37:20;4.50;;;1.67;;
4309;SDS011;2168;53.576;9.980;2023-02-24T16:39:46;10.83;;;2.10;;
4309;SDS011;2168;53.576;9.980;2023-02-24T16:42:13;6.83;;;2.10;;
4309;SDS011;2168;53.576;9.980;2023-02-24T16:44:38;12.70;;;2.40;;
4309;SDS011;2168;53.576;9.980;2023-02-24T16:47:04;9.67;;;2.30;;
4309;SDS011;2168;53.576;9.980;2023-02-24T16:49:30;6.93;;;2.43;;
4309;SDS011;2168;53.576;9.980;2023-02-24T16:51:56;5.50;;;2.23;;
4309;SDS011;2168;53.576;9.980;2023-02-24T16:54:21;12.37;;;2.70;;
4309;SDS011;2168;53.576;9.980;2023-02-24T16:56:52;6.80;;;2.43;;
4309;SDS011;2168;53.576;9.980;2023-02-24T16:59:18;12.33;;;2.40;;
4309;SDS011;2168;53.576;9.980;2023-02-24T17:01:43;10.10;;;2.20;;
4309;SDS011;2168;53.576;9.980;2023-02-24T17:04:08;12.37;;;2.80;;
4309;SDS011;2168;53.576;9.980;2023-02-24T17:06:35;8.57;;;2.30;;
4309;SDS011;2168;53.576;9.980;2023-02-24T17:09:00;13.13;;;2.60;;
4309;SDS011;2168;53.576;9.980;2023-02-24T17:11:25;7.87;;;2.50;;
4309;SDS011;2168;53.576;9.980;2023-02-24T17:13:51;19.93;;;3.60;;
4309;SDS011;2168;53.576;9.980;2023-02-24T17:16:16;19.80;;;3.23;;
4309;SDS011;2168;53.576;9.980;2023-02-24T17:18:41;16.67;;;3.90;;
4309;SDS011;2168;53.576;9.980;2023-02-24T17:21:08;10.50;;;2.57;;